Time;durP1;ratioP1;P1;durP2;ratioP2;P2;SDS_P1;SDS_P2;PMS_P1;PMS_P2;Temp;Humidity;BMP_temperature;BMP_pressure;BME280_temperature;BME280_humidity;BME280_pressure;Samples;Min_cycle;Max_cycle;Signal;HPM_P1;HPM_P2
2021/12/23 00:00:16;;;;;;;35.15;19.73;;;;;;;-1.27;92.59;101618.00;6218024;23;20016;-64
2021/12/23 00:02:41;;;;;;;35.38;19.55;;;;;;;-1.27;92.38;101625.72;6217424;23;20074;-64
2021/12/23 00:05:09;;;;;;;36.70;19.38;;;;;;;-1.30;92.10;101620.44;6217853;23;20066;-63
2021/12/23 00:07:34;;;;;;;37.67;19.35;;;;;;;-1.25;92.06;101624.09;6217439;23;20268;-65
2021/12/23 00:10:06;;;;;;;36.20;19.48;;;;;;;-1.31;91.74;101607.53;6217528;23;20039;-64
2021/12/23 00:12:33;;;;;;;35.40;18.73;;;;;;;-1.27;91.80;101612.00;6217480;23;20001;-63
2021/12/23 00:14:58;;;;;;;33.60;19.52;;;;;;;-1.35;92.45;101603.94;6217547;23;20008;-63
2021/12/23 00:17:38;;;;;;;35.35;19.98;;;;;;;-1.34;92.22;101605.69;6217639;23;20040;-62
2021/12/23 00:25:17;;;;;;;38.65;19.52;;;;;;;-1.44;92.31;101577.84;6217154;23;20024;-62
2021/12/23 00:27:43;;;;;;;35.40;19.75;;;;;;;-1.43;92.37;101577.03;6217022;23;20005;-64
2021/12/23 00:30:09;;;;;;;29.17;18.10;;;;;;;-1.41;91.92;101584.00;6217262;23;20004;-65
2021/12/23 00:32:34;;;;;;;33.95;19.42;;;;;;;-1.39;92.29;101583.19;6216873;23;20009;-65
2021/12/23 00:35:00;;;;;;;34.70;19.35;;;;;;;-1.38;92.29;101555.00;6217333;23;20059;-62
2021/12/23 00:37:25;;;;;;;30.92;18.38;;;;;;;-1.36;92.38;101542.25;6216690;23;20005;-62
2021/12/23 00:39:52;;;;;;;32.50;19.15;;;;;;;-1.34;91.80;101531.25;6217135;23;20036;-65
2021/12/23 00:42:17;;;;;;;31.00;18.55;;;;;;;-1.32;91.91;101544.16;6216849;23;20063;-64
2021/12/23 00:44:45;;;;;;;33.38;18.27;;;;;;;-1.31;91.22;101551.03;6217113;23;20024;-63
2021/12/23 00:47:11;;;;;;;33.13;18.55;;;;;;;-1.33;91.22;101550.97;6217028;23;20107;-62
2021/12/23 00:49:36;;;;;;;34.35;19.17;;;;;;;-1.30;91.16;101548.53;6217391;23;20403;-64
2021/12/23 00:52:03;;;;;;;35.55;18.95;;;;;;;-1.27;90.95;101551.25;6217385;23;20005;-63
2021/12/23 00:54:29;;;;;;;33.33;19.00;;;;;;;-1.25;90.89;101541.94;6219267;23;20004;-62
2021/12/23 00:56:54;;;;;;;33.70;18.20;;;;;;;-1.25;90.68;101525.66;6218910;23;20009;-63
2021/12/23 00:59:19;;;;;;;34.50;19.08;;;;;;;-1.25;90.64;101530.78;6219609;23;20008;-62
2021/12/23 01:01:46;;;;;;;34.47;18.83;;;;;;;-1.20;90.29;101545.56;6219035;23;20302;-62
2021/12/23 01:04:12;;;;;;;37.28;18.52;;;;;;;-1.23;90.83;101548.03;6219406;23;20356;-63
2021/12/23 01:06:37;;;;;;;34.45;18.95;;;;;;;-1.23;90.77;101554.84;6219308;23;20009;-63
2021/12/23 01:09:02;;;;;;;34.45;19.05;;;;;;;-1.24;90.72;101565.94;6217795;23;20012;-65
2021/12/23 01:11:28;;;;;;;33.60;19.08;;;;;;;-1.26;90.53;101554.72;6219224;23;20000;-64
2021/12/23 01:14:03;;;;;;;32.70;18.95;;;;;;;-1.24;90.21;101551.41;6220203;23;20009;-63
2021/12/23 01:19:38;;;;;;;31.77;18.23;;;;;;;-1.32;90.78;101524.50;6157407;23;20288;-62
2021/12/23 01:22:04;;;;;;;33.80;19.00;;;;;;;-1.24;91.15;101538.56;6156335;23;20005;-62
2021/12/23 01:24:33;;;;;;;34.53;18.10;;;;;;;-1.20;90.36;101537.88;6187821;23;20017;-64
2021/12/23 01:26:58;;;;;;;30.58;17.75;;;;;;;-1.17;90.23;101539.69;6218811;23;20008;-64
2021/12/23 01:29:23;;;;;;;33.95;18.42;;;;;;;-1.16;90.51;101537.22;6218839;23;20079;-63
2021/12/23 01:31:49;;;;;;;33.47;18.58;;;;;;;-1.15;90.44;101527.81;6218920;23;20147;-63
2021/12/23 01:34:14;;;;;;;30.15;18.33;;;;;;;-1.16;89.87;101531.19;6219158;23;20012;-63
2021/12/23 01:36:39;;;;;;;35.00;18.35;;;;;;;-1.18;90.25;101525.09;6218668;23;20016;-62
2021/12/23 01:39:05;;;;;;;33.95;18.35;;;;;;;-1.10;89.91;101527.22;6219565;23;20005;-62
2021/12/23 01:41:30;;;;;;;34.90;19.27;;;;;;;-1.11;89.48;101517.75;6218783;23;20066;-63
2021/12/23 01:43:56;;;;;;;33.53;18.55;;;;;;;-1.08;89.86;101519.59;6219036;23;20005;-62
2021/12/23 01:46:22;;;;;;;33.47;18.48;;;;;;;-1.09;89.90;101512.69;6218483;23;20485;-64
2021/12/23 01:48:48;;;;;;;32.25;18.13;;;;;;;-1.10;89.73;101510.94;6218805;23;20011;-63
2021/12/23 01:51:13;;;;;;;33.25;18.60;;;;;;;-1.06;89.95;101512.84;6218698;23;20048;-63
2021/12/23 01:53:39;;;;;;;34.78;18.10;;;;;;;-1.06;89.39;101507.69;6218766;23;20016;-64
2021/12/23 01:56:05;;;;;;;32.50;18.17;;;;;;;-1.08;89.05;101497.34;6218585;23;20005;-61
2021/12/23 01:58:31;;;;;;;31.48;18.42;;;;;;;-1.08;89.10;101491.34;6219076;23;20088;-62
2021/12/23 02:00:56;;;;;;;31.48;18.77;;;;;;;-1.11;89.21;101488.63;6218491;23;20039;-62
2021/12/23 02:03:22;;;;;;;34.17;18.35;;;;;;;-1.08;89.34;101488.75;6218104;23;20008;-63
2021/12/23 02:05:47;;;;;;;34.38;19.20;;;;;;;-1.07;89.32;101481.13;6218594;23;20004;-63
2021/12/23 02:08:13;;;;;;;35.42;18.90;;;;;;;-1.06;89.31;101477.75;6218088;23;20376;-62
2021/12/23 02:10:40;;;;;;;33.50;17.77;;;;;;;-1.06;89.21;101470.03;6218413;23;20088;-64
2021/12/23 02:13:06;;;;;;;33.72;18.92;;;;;;;-1.12;89.45;101463.75;6219020;23;20036;-63
2021/12/23 02:15:31;;;;;;;33.83;18.70;;;;;;;-1.23;89.86;101447.00;6218168;23;20008;-62
2021/12/23 02:17:57;;;;;;;31.25;18.02;;;;;;;-1.15;89.92;101471.31;6218360;23;20150;-62
2021/12/23 02:20:28;;;;;;;33.72;18.02;;;;;;;-1.08;89.15;101473.34;6218333;23;20500;-62
2021/12/23 02:22:53;;;;;;;33.00;18.58;;;;;;;-1.22;89.06;101441.94;6218391;23;20008;-62
2021/12/23 02:25:19;;;;;;;34.35;18.20;;;;;;;-1.18;88.42;101456.66;6218844;23;20004;-63
2021/12/23 02:27:45;;;;;;;34.05;17.90;;;;;;;-1.13;88.76;101460.31;6218539;23;20359;-62
2021/12/23 02:30:15;;;;;;;34.58;18.10;;;;;;;-1.17;88.89;101460.09;6218117;23;20001;-64
2021/12/23 02:32:41;;;;;;;32.67;17.80;;;;;;;-1.12;88.07;101469.78;6218705;23;20070;-63
2021/12/23 02:35:11;;;;;;;31.50;18.48;;;;;;;-1.22;88.65;101453.91;6217900;23;20055;-62
2021/12/23 02:37:37;;;;;;;30.50;18.17;;;;;;;-1.20;88.81;101467.66;6218790;23;20005;-62
2021/12/23 02:40:03;;;;;;;33.22;18.10;;;;;;;-1.28;89.27;101472.47;6218329;23;20042;-63
2021/12/23 02:42:28;;;;;;;33.63;18.25;;;;;;;-1.36;89.22;101475.50;6218466;23;20007;-64
2021/12/23 02:44:54;;;;;;;34.20;18.48;;;;;;;-1.39;89.04;101478.84;6218487;23;20017;-64
2021/12/23 02:47:19;;;;;;;34.03;19.48;;;;;;;-1.41;89.50;101472.75;6218068;23;20087;-62
2021/12/23 02:49:45;;;;;;;36.50;19.15;;;;;;;-1.43;89.58;101469.22;6218249;23;20004;-62
2021/12/23 02:52:10;;;;;;;36.97;19.75;;;;;;;-1.46;89.57;101474.22;6218314;23;20438;-62
2021/12/23 02:54:36;;;;;;;37.78;20.23;;;;;;;-1.56;90.26;101462.66;6218476;23;20004;-62
2021/12/23 02:57:02;;;;;;;32.70;18.67;;;;;;;-1.52;90.12;101459.41;6217842;23;20043;-64
2021/12/23 02:59:27;;;;;;;40.05;19.42;;;;;;;-1.59;90.15;101443.69;6218358;23;20294;-64
2021/12/23 03:01:52;;;;;;;37.05;20.15;;;;;;;-1.60;89.92;101436.81;6218100;23;20032;-63
2021/12/23 03:04:18;;;;;;;38.30;20.05;;;;;;;-1.65;90.59;101430.56;6217971;23;20036;-62
2021/12/23 03:06:43;;;;;;;33.40;19.30;;;;;;;-1.76;90.80;101440.38;6217646;23;20399;-63
2021/12/23 03:09:08;;;;;;;33.60;18.98;;;;;;;-1.76;91.02;101436.13;6217642;23;20004;-64
2021/12/23 03:11:34;;;;;;;38.45;20.50;;;;;;;-1.72;90.84;101431.97;6218228;23;20001;-62
2021/12/23 03:13:59;;;;;;;39.33;20.17;;;;;;;-1.81;90.90;101422.19;6218017;23;20016;-62
2021/12/23 03:16:28;;;;;;;30.63;18.35;;;;;;;-1.78;91.24;101435.16;6216786;23;20001;-62
2021/12/23 03:18:54;;;;;;;36.97;20.52;;;;;;;-1.76;90.86;101427.53;6218147;23;20071;-61
2021/12/23 03:21:19;;;;;;;41.47;19.67;;;;;;;-1.80;91.08;101415.38;6217917;23;20326;-64
2021/12/23 03:23:45;;;;;;;36.33;20.33;;;;;;;-1.72;91.04;101419.16;6218197;23;20040;-65
2021/12/23 03:26:11;;;;;;;40.42;20.55;;;;;;;-1.70;90.76;101422.66;6217888;23;20287;-61
2021/12/23 03:28:36;;;;;;;36.80;20.02;;;;;;;-1.81;91.36;101406.81;6217910;23;20009;-63
2021/12/23 03:31:02;;;;;;;36.30;19.52;;;;;;;-1.82;91.61;101402.47;6217963;23;20074;-64
2021/12/23 03:33:28;;;;;;;38.42;20.02;;;;;;;-1.70;90.95;101399.56;6217235;23;20005;-63
2021/12/23 03:35:54;;;;;;;39.13;20.70;;;;;;;-1.69;91.05;101379.94;6218306;23;20179;-62
2021/12/23 03:38:21;;;;;;;36.55;20.38;;;;;;;-1.48;89.98;101373.19;6217742;23;20012;-62
2021/12/23 03:40:49;;;;;;;41.67;21.67;;;;;;;-1.64;90.71;101392.16;6217997;23;20008;-63
2021/12/23 03:43:16;;;;;;;39.20;20.90;;;;;;;-1.70;90.84;101391.88;6217708;23;20040;-62
2021/12/23 03:45:43;;;;;;;38.40;21.33;;;;;;;-1.72;90.97;101360.16;6217669;23;20023;-63
2021/12/23 03:48:09;;;;;;;39.17;20.75;;;;;;;-1.58;90.24;101355.66;6217245;23;20383;-62
2021/12/23 03:50:34;;;;;;;40.03;21.40;;;;;;;-1.63;91.19;101349.44;6217908;23;20098;-64
2021/12/23 03:53:00;;;;;;;39.30;21.08;;;;;;;-1.58;90.74;101364.22;6218031;23;20017;-62
2021/12/23 03:55:25;;;;;;;38.97;22.08;;;;;;;-1.62;91.59;101341.78;6217643;23;20004;-62
2021/12/23 03:57:50;;;;;;;42.47;21.33;;;;;;;-1.58;91.27;101319.72;6217631;23;20012;-62
2021/12/23 04:00:18;;;;;;;39.55;22.23;;;;;;;-1.47;90.87;101316.78;6217341;23;20358;-63
2021/12/23 04:02:44;;;;;;;41.33;21.33;;;;;;;-1.36;90.01;101326.63;6217332;23;20033;-63
2021/12/23 04:05:10;;;;;;;36.22;20.42;;;;;;;-1.41;90.20;101313.63;6217478;23;20027;-62
2021/12/23 04:07:36;;;;;;;43.17;21.88;;;;;;;-1.40;90.35;101335.91;6217185;23;20411;-63
2021/12/23 04:10:03;;;;;;;42.55;22.45;;;;;;;-1.43;90.09;101328.94;6217743;23;20004;-64
2021/12/23 04:12:28;;;;;;;42.40;23.10;;;;;;;-1.42;90.78;101333.28;6217575;23;20023;-62
2021/12/23 04:14:54;;;;;;;42.38;22.77;;;;;;;-1.37;90.85;101332.56;6217885;23;20383;-62
2021/12/23 04:17:19;;;;;;;41.58;22.40;;;;;;;-1.33;90.04;101307.09;6217035;23;20009;-64
2021/12/23 04:19:46;;;;;;;44.85;23.13;;;;;;;-1.25;89.59;101307.44;6217788;23;20012;-61
2021/12/23 04:22:12;;;;;;;46.70;23.80;;;;;;;-1.22;89.70;101303.31;6217232;23;20001;-63
2021/12/23 04:24:38;;;;;;;42.67;22.50;;;;;;;-1.18;89.56;101312.88;6216989;23;20042;-63
2021/12/23 04:27:04;;;;;;;46.08;24.02;;;;;;;-1.25;89.75;101316.00;6217043;23;20083;-62
2021/12/23 04:29:29;;;;;;;43.45;23.45;;;;;;;-1.28;90.56;101309.88;6217056;23;20453;-64
2021/12/23 04:31:55;;;;;;;45.15;24.13;;;;;;;-1.29;90.32;101315.81;6217221;23;20086;-62
2021/12/23 04:34:20;;;;;;;44.08;23.25;;;;;;;-1.33;90.20;101326.75;6217250;23;20005;-63
2021/12/23 04:36:46;;;;;;;45.38;24.73;;;;;;;-1.28;90.07;101318.44;6217405;23;20306;-62
2021/12/23 04:39:11;;;;;;;42.90;22.48;;;;;;;-1.22;89.18;101308.44;6217516;23;20341;-62
2021/12/23 04:41:38;;;;;;;47.88;24.42;;;;;;;-1.25;89.59;101289.47;6216777;23;20009;-63
2021/12/23 04:44:03;;;;;;;43.90;23.60;;;;;;;-1.34;90.44;101299.34;6217437;23;20032;-62
2021/12/23 04:46:29;;;;;;;49.15;25.33;;;;;;;-1.58;90.88;101266.72;6216362;23;20009;-62
2021/12/23 04:48:54;;;;;;;44.08;23.98;;;;;;;-1.34;90.41;101277.09;6217324;23;20039;-63
2021/12/23 04:51:20;;;;;;;47.67;23.77;;;;;;;-1.32;89.75;101267.78;6216926;23;20012;-61
2021/12/23 04:53:46;;;;;;;45.92;25.48;;;;;;;-1.37;90.54;101283.78;6217240;23;20080;-64
2021/12/23 04:56:13;;;;;;;46.78;23.85;;;;;;;-1.41;91.17;101277.69;6217218;23;20375;-62
2021/12/23 04:58:40;;;;;;;50.85;26.77;;;;;;;-1.36;90.39;101273.59;6217280;23;20009;-62
2021/12/23 05:01:08;;;;;;;52.90;27.75;;;;;;;-1.35;90.58;101266.78;6217146;23;20004;-63
2021/12/23 05:03:33;;;;;;;47.60;26.42;;;;;;;-1.30;90.66;101253.31;6217216;23;20015;-61
2021/12/23 05:05:59;;;;;;;48.35;25.00;;;;;;;-1.28;90.11;101256.84;6217357;23;20008;-62
2021/12/23 05:08:24;;;;;;;49.13;27.23;;;;;;;-1.16;89.83;101262.44;6217141;23;20111;-62
2021/12/23 05:10:49;;;;;;;52.10;26.52;;;;;;;-1.19;90.00;101253.75;6216793;23;20024;-61
2021/12/23 05:13:15;;;;;;;46.97;25.52;;;;;;;-1.17;90.10;101258.13;6216107;23;20012;-63
2021/12/23 05:15:40;;;;;;;52.92;28.27;;;;;;;-1.20;89.88;101249.41;6217058;23;20009;-63
2021/12/23 05:18:07;;;;;;;56.30;28.50;;;;;;;-1.20;90.42;101250.31;6216849;23;20300;-62
2021/12/23 05:20:32;;;;;;;54.22;28.52;;;;;;;-1.16;90.39;101261.56;6217243;23;20009;-64
2021/12/23 05:22:57;;;;;;;55.45;28.65;;;;;;;-1.23;90.81;101247.63;6217045;23;20347;-62
2021/12/23 05:25:23;;;;;;;53.53;27.30;;;;;;;-1.16;90.20;101243.59;6217257;23;20016;-62
2021/12/23 05:27:52;;;;;;;52.28;27.38;;;;;;;-1.17;90.76;101252.13;6217176;23;20401;-63
2021/12/23 05:30:18;;;;;;;52.85;26.58;;;;;;;-1.18;90.42;101246.09;6216113;23;20015;-65
2021/12/23 05:32:43;;;;;;;54.25;26.20;;;;;;;-1.09;89.87;101245.63;6217008;23;20083;-64
2021/12/23 05:35:12;;;;;;;54.28;27.25;;;;;;;-1.15;90.62;101245.34;6216794;23;20084;-64
2021/12/23 05:37:37;;;;;;;50.67;26.48;;;;;;;-1.19;90.68;101236.66;6216753;23;20020;-62
2021/12/23 05:40:04;;;;;;;54.17;27.83;;;;;;;-1.13;90.58;101249.75;6218986;23;20004;-64
2021/12/23 05:42:29;;;;;;;52.60;26.65;;;;;;;-1.13;90.60;101239.47;6218806;23;20032;-64
2021/12/23 05:44:55;;;;;;;50.50;26.60;;;;;;;-1.11;89.97;101229.25;6218594;23;20016;-63
2021/12/23 05:47:20;;;;;;;51.75;26.60;;;;;;;-1.16;91.08;101226.50;6218828;23;20066;-62
2021/12/23 05:49:45;;;;;;;49.78;26.02;;;;;;;-1.09;90.44;101215.69;6218713;23;20314;-64
2021/12/23 05:52:11;;;;;;;54.25;26.88;;;;;;;-1.10;91.04;101211.34;6219017;23;20090;-63
2021/12/23 05:54:36;;;;;;;48.22;25.83;;;;;;;-1.06;90.17;101210.66;6218639;23;20086;-64
2021/12/23 05:57:02;;;;;;;48.78;25.30;;;;;;;-1.11;90.29;101219.88;6218777;23;20012;-65
2021/12/23 05:59:32;;;;;;;50.45;26.15;;;;;;;-1.18;91.17;101219.56;6218475;23;20016;-64
2021/12/23 06:01:59;;;;;;;49.97;25.73;;;;;;;-1.12;90.80;101233.53;6218742;23;20015;-66
2021/12/23 06:04:24;;;;;;;49.25;25.40;;;;;;;-1.07;90.40;101226.00;6218626;23;20043;-63
2021/12/23 06:06:50;;;;;;;47.45;25.30;;;;;;;-1.07;90.54;101220.88;6218206;23;20013;-64
2021/12/23 06:09:15;;;;;;;51.45;26.55;;;;;;;-1.07;90.08;101219.19;6218636;23;20008;-63
2021/12/23 06:11:41;;;;;;;53.47;26.15;;;;;;;-1.17;90.50;101231.56;6218294;23;20401;-65
2021/12/23 06:14:06;;;;;;;52.10;23.48;;;;;;;-1.13;90.54;101218.94;6218276;23;20067;-64
2021/12/23 06:16:31;;;;;;;50.25;26.27;;;;;;;-1.06;89.89;101213.22;6218328;23;20005;-65
2021/12/23 06:18:57;;;;;;;55.38;26.15;;;;;;;-1.02;89.85;101227.03;6217952;23;20124;-63
2021/12/23 06:21:26;;;;;;;50.55;26.40;;;;;;;-1.11;89.93;101208.72;6218396;23;20028;-63
2021/12/23 06:23:52;;;;;;;51.03;24.95;;;;;;;-1.20;90.62;101208.34;6217791;23;20004;-64
2021/12/23 06:26:17;;;;;;;50.30;25.70;;;;;;;-1.12;90.36;101199.25;6218346;23;20031;-64
2021/12/23 06:28:42;;;;;;;50.00;24.80;;;;;;;-1.07;90.06;101193.50;6218087;23;20083;-63
2021/12/23 06:31:08;;;;;;;49.78;26.27;;;;;;;-1.06;89.97;101199.50;6218215;23;20390;-63
2021/12/23 06:33:34;;;;;;;51.95;25.35;;;;;;;-1.23;90.75;101191.16;6217994;23;20084;-62
2021/12/23 06:35:59;;;;;;;54.30;26.45;;;;;;;-1.20;91.13;101188.69;6217983;23;20005;-64
2021/12/23 06:38:24;;;;;;;53.13;26.42;;;;;;;-1.12;90.44;101184.72;6218151;23;20036;-62
2021/12/23 06:40:50;;;;;;;51.10;25.48;;;;;;;-1.28;91.13;101166.97;6218239;23;20016;-64
2021/12/23 06:43:15;;;;;;;54.08;26.15;;;;;;;-1.18;90.76;101184.47;6218028;23;20012;-62
2021/12/23 06:45:41;;;;;;;51.42;25.08;;;;;;;-1.18;91.24;101169.06;6218612;23;20396;-63
2021/12/23 06:48:06;;;;;;;57.58;26.35;;;;;;;-1.13;90.77;101166.69;6218296;23;20099;-64
2021/12/23 06:50:31;;;;;;;54.95;26.23;;;;;;;-1.16;91.40;101171.72;6218537;23;20298;-63
2021/12/23 06:52:58;;;;;;;52.08;26.10;;;;;;;-1.13;91.33;101177.84;6217990;23;20046;-64
2021/12/23 06:55:23;;;;;;;54.00;25.00;;;;;;;-1.11;91.36;101172.78;6218173;23;20004;-64
2021/12/23 06:57:56;;;;;;;51.92;24.25;;;;;;;-1.04;90.97;101156.78;6217899;23;20062;-63
2021/12/23 07:00:21;;;;;;;51.50;26.08;;;;;;;-1.07;91.30;101167.81;6217732;23;20402;-64
2021/12/23 07:02:47;;;;;;;53.58;25.98;;;;;;;-0.98;91.80;101174.97;6218063;23;20015;-63
2021/12/23 07:05:13;;;;;;;51.70;26.10;;;;;;;-0.96;91.33;101164.78;6218188;23;20314;-63
2021/12/23 07:08:03;;;;;;;52.75;22.70;;;;;;;-0.91;90.88;101170.97;6218345;23;20000;-65
2021/12/23 07:10:29;;;;;;;50.53;24.67;;;;;;;-0.91;90.89;101174.41;6217334;23;20009;-63
2021/12/23 07:12:56;;;;;;;56.28;26.02;;;;;;;-0.86;91.18;101177.13;6218228;23;20013;-64
2021/12/23 07:15:23;;;;;;;54.50;25.67;;;;;;;-0.88;91.08;101171.97;6217940;23;20004;-64
2021/12/23 07:17:49;;;;;;;56.38;26.05;;;;;;;-0.87;91.29;101160.88;6218013;23;20004;-63
2021/12/23 07:20:15;;;;;;;48.17;24.00;;;;;;;-0.80;90.84;101159.41;6217885;23;20031;-66
2021/12/23 07:22:41;;;;;;;49.00;24.60;;;;;;;-0.84;90.23;101154.94;6217894;23;20016;-64
2021/12/23 07:25:07;;;;;;;53.05;26.10;;;;;;;-0.83;90.61;101165.28;6217274;23;20005;-63
2021/12/23 07:27:32;;;;;;;52.38;25.85;;;;;;;-0.75;90.04;101163.91;6217890;23;20004;-63
2021/12/23 07:29:57;;;;;;;54.28;26.77;;;;;;;-0.79;90.42;101161.16;6218149;23;20000;-65
2021/12/23 07:32:23;;;;;;;55.03;25.73;;;;;;;-0.77;90.76;101162.97;6218068;23;20012;-65
2021/12/23 07:34:48;;;;;;;52.95;23.60;;;;;;;-0.72;90.37;101161.44;6217544;23;20012;-64
2021/12/23 07:37:13;;;;;;;51.00;25.10;;;;;;;-0.72;90.18;101170.84;6217510;23;20004;-63
2021/12/23 07:39:39;;;;;;;52.70;24.48;;;;;;;-0.65;90.05;101172.81;6217416;23;20038;-63
2021/12/23 07:42:06;;;;;;;56.25;25.80;;;;;;;-0.70;90.65;101179.50;6217560;23;20004;-64
2021/12/23 07:44:32;;;;;;;55.92;26.83;;;;;;;-0.69;91.03;101178.66;6217130;23;20013;-64
2021/12/23 07:46:58;;;;;;;53.72;25.92;;;;;;;-0.67;90.73;101171.88;6217579;23;20045;-64
2021/12/23 07:49:24;;;;;;;56.72;26.60;;;;;;;-0.70;91.09;101174.34;6217226;23;20379;-65
2021/12/23 07:51:49;;;;;;;49.13;25.17;;;;;;;-0.66;90.93;101177.88;6217642;23;20012;-63
2021/12/23 07:54:15;;;;;;;52.10;26.05;;;;;;;-0.65;90.73;101170.25;6217331;23;20009;-63
2021/12/23 07:56:40;;;;;;;50.67;25.13;;;;;;;-0.57;90.53;101166.25;6217460;23;20390;-65
2021/12/23 07:59:05;;;;;;;50.90;26.00;;;;;;;-0.62;91.06;101162.66;6218023;23;20005;-60
2021/12/23 08:01:31;;;;;;;55.00;26.60;;;;;;;-0.57;90.83;101152.53;6217556;23;20263;-64
2021/12/23 08:03:56;;;;;;;51.70;23.75;;;;;;;-0.50;90.39;101155.38;6217112;23;20091;-63
2021/12/23 08:06:21;;;;;;;52.88;25.30;;;;;;;-0.56;90.58;101154.28;6215982;23;20390;-64
2021/12/23 08:08:46;;;;;;;56.10;26.73;;;;;;;-0.55;91.02;101154.34;6215077;23;20456;-66
2021/12/23 08:11:12;;;;;;;49.63;24.40;;;;;;;-0.59;91.32;101139.63;6216506;23;20024;-64
2021/12/23 08:13:38;;;;;;;49.05;25.08;;;;;;;-0.55;91.09;101148.34;6217256;23;20008;-64
2021/12/23 08:16:04;;;;;;;53.65;25.77;;;;;;;-0.48;90.89;101158.00;6217453;23;20032;-64
2021/12/23 08:18:31;;;;;;;51.03;24.83;;;;;;;-0.49;91.18;101156.25;6217191;23;20005;-64
2021/12/23 08:20:57;;;;;;;53.38;25.17;;;;;;;-0.45;91.14;101150.41;6217254;23;20009;-64
2021/12/23 08:23:23;;;;;;;49.25;25.38;;;;;;;-0.43;91.08;101159.03;6217193;23;20390;-64
2021/12/23 08:25:48;;;;;;;56.67;26.80;;;;;;;-0.40;90.99;101156.59;6217333;23;20365;-63
2021/12/23 08:28:14;;;;;;;57.35;25.77;;;;;;;-0.40;91.09;101141.16;6217018;23;20028;-65
2021/12/23 08:30:40;;;;;;;53.05;26.02;;;;;;;-0.37;91.19;101149.00;6217273;23;20012;-64
2021/12/23 08:33:07;;;;;;;54.05;25.30;;;;;;;-0.36;91.68;101131.06;6216856;23;20389;-64
2021/12/23 08:35:33;;;;;;;52.25;25.63;;;;;;;-0.36;91.37;101135.31;6217540;23;20058;-63
2021/12/23 08:37:58;;;;;;;55.65;25.52;;;;;;;-0.35;91.51;101127.63;6216597;23;20005;-64
2021/12/23 08:40:26;;;;;;;53.90;25.30;;;;;;;-0.29;90.92;101129.56;6217211;23;20008;-64
2021/12/23 08:42:53;;;;;;;52.88;25.17;;;;;;;-0.25;91.25;101130.53;6217406;23;20016;-64
2021/12/23 08:45:19;;;;;;;55.95;26.38;;;;;;;-0.22;91.74;101122.94;6217563;23;20087;-64
2021/12/23 08:47:45;;;;;;;53.63;25.60;;;;;;;-0.24;90.92;101109.16;6214011;23;20012;-64
2021/12/23 08:50:14;;;;;;;51.10;25.50;;;;;;;-0.15;90.97;101115.47;6216680;23;20410;-64
2021/12/23 08:52:40;;;;;;;48.72;23.58;;;;;;;-0.07;90.39;101118.31;6216484;23;20028;-64
2021/12/23 08:55:07;;;;;;;51.33;25.02;;;;;;;-0.08;90.04;101102.00;6216876;23;20004;-64
2021/12/23 08:57:33;;;;;;;51.75;25.05;;;;;;;-0.06;90.30;101108.06;6217476;23;20334;-65
2021/12/23 08:59:58;;;;;;;51.47;24.30;;;;;;;-0.07;90.62;101102.88;6217252;23;20074;-64
2021/12/23 09:02:25;;;;;;;49.63;24.85;;;;;;;-0.01;89.92;101108.25;6217214;23;20007;-63
2021/12/23 09:04:50;;;;;;;50.72;24.42;;;;;;;-0.01;90.27;101109.13;6217150;23;20019;-64
2021/12/23 09:07:15;;;;;;;52.63;23.42;;;;;;;0.08;89.53;101112.78;6216844;23;20009;-64
2021/12/23 09:09:41;;;;;;;54.33;25.25;;;;;;;0.14;89.37;101098.44;6217221;23;20004;-64
2021/12/23 09:12:07;;;;;;;55.28;25.10;;;;;;;0.16;89.31;101096.81;6217419;23;20005;-64
2021/12/23 09:14:34;;;;;;;51.85;25.45;;;;;;;0.24;88.78;101091.88;6218942;23;20009;-64
2021/12/23 09:17:00;;;;;;;52.90;25.02;;;;;;;0.26;89.25;101091.13;6219145;23;20067;-62
2021/12/23 09:19:26;;;;;;;51.92;25.88;;;;;;;0.37;89.09;101104.31;6219173;23;20001;-63
2021/12/23 09:21:52;;;;;;;54.58;24.40;;;;;;;0.37;89.22;101088.88;6218798;23;20005;-63
2021/12/23 09:24:19;;;;;;;51.33;24.63;;;;;;;0.37;89.73;101088.88;6219536;23;20449;-63
2021/12/23 09:26:51;;;;;;;54.30;25.55;;;;;;;0.34;89.04;101081.06;6218978;23;20032;-63
2021/12/23 09:34:44;;;;;;;49.60;23.67;;;;;;;0.49;88.20;101083.25;6218512;23;20420;-63
2021/12/23 09:37:10;;;;;;;52.45;24.98;;;;;;;0.51;89.37;101087.63;6219109;23;20083;-63
2021/12/23 09:39:35;;;;;;;52.47;24.60;;;;;;;0.56;88.69;101087.75;6218882;23;20324;-63
2021/12/23 09:42:03;;;;;;;51.10;24.15;;;;;;;0.55;89.10;101083.41;6218789;23;20386;-63
2021/12/23 09:44:30;;;;;;;53.22;24.20;;;;;;;0.57;88.68;101079.19;6217662;23;20017;-62
2021/12/23 09:47:00;;;;;;;48.55;23.65;;;;;;;0.62;89.41;101068.22;6218707;23;20008;-63
2021/12/23 09:49:27;;;;;;;54.15;26.10;;;;;;;0.67;89.03;101071.81;6218925;23;20039;-64
2021/12/23 09:51:54;;;;;;;49.80;24.45;;;;;;;0.69;89.22;101053.84;6219306;23;20092;-64
2021/12/23 09:54:20;;;;;;;50.95;22.55;;;;;;;0.81;87.92;101059.34;6218830;23;20005;-64
2021/12/23 09:56:46;;;;;;;54.63;23.58;;;;;;;0.68;88.98;101041.78;6218753;23;20052;-65
2021/12/23 09:59:13;;;;;;;53.47;24.45;;;;;;;0.79;88.62;101049.81;6219004;23;20012;-65
2021/12/23 10:01:38;;;;;;;55.00;24.58;;;;;;;0.85;88.29;101052.59;6218046;23;20083;-65
2021/12/23 10:04:04;;;;;;;47.55;22.90;;;;;;;0.84;88.57;101045.69;6218586;23;20045;-66
2021/12/23 10:06:30;;;;;;;48.05;22.20;;;;;;;0.89;88.17;101044.97;6218756;23;20111;-66
2021/12/23 10:08:55;;;;;;;52.63;24.00;;;;;;;0.83;88.42;101041.34;6218573;23;20353;-64
2021/12/23 10:11:49;;;;;;;48.97;24.00;;;;;;;0.87;88.93;101044.03;6218650;23;20005;-65
2021/12/23 10:31:08;;;;;;;55.40;24.48;;;;;;;1.09;88.84;101013.72;6228058;23;20366;-64
2021/12/23 10:37:05;;;;;;;49.33;23.67;;;;;;;1.15;89.10;101006.19;6218762;23;20004;-64
2021/12/23 10:39:25;;;;;;;51.95;24.88;;;;;;;1.28;88.36;100987.63;6218261;23;20023;-64
2021/12/23 10:41:50;;;;;;;48.83;24.92;;;;;;;1.29;88.65;100971.31;6218412;23;20352;-64
2021/12/23 10:44:28;;;;;;;52.33;24.10;;;;;;;1.32;88.38;100961.97;6218375;23;20076;-65
2021/12/23 10:46:54;;;;;;;51.75;25.30;;;;;;;1.37;88.22;100956.94;6217902;23;20294;-64
2021/12/23 10:49:31;;;;;;;55.20;24.63;;;;;;;1.42;88.33;100950.19;6218054;23;20020;-65
2021/12/23 10:52:07;;;;;;;51.00;24.15;;;;;;;1.42;88.95;100945.03;6218076;23;20294;-65
2021/12/23 11:00:20;;;;;;;53.78;23.48;;;;;;;1.70;88.10;100950.03;6217981;23;20035;-63
2021/12/23 11:03:19;;;;;;;52.65;24.30;;;;;;;1.71;88.63;100944.03;6218540;23;20070;-64
2021/12/23 11:06:00;;;;;;;44.55;21.75;;;;;;;1.92;87.52;100930.75;6217970;23;20035;-64
2021/12/23 11:29:23;;;;;;;46.97;22.90;;;;;;;2.34;87.91;100910.19;6217481;23;20019;-63
2021/12/23 11:42:24;;;;;;;47.45;23.60;;;;;;;2.69;86.56;100872.13;6227599;23;20009;-65
2021/12/23 11:44:51;;;;;;;43.28;21.48;;;;;;;2.70;86.80;100871.28;6218201;23;20023;-64
2021/12/23 11:47:16;;;;;;;46.72;23.05;;;;;;;2.79;86.49;100868.88;6216749;23;20358;-64
2021/12/23 11:49:45;;;;;;;44.95;22.48;;;;;;;2.80;86.20;100861.97;6217693;23;20036;-66
2021/12/23 11:52:11;;;;;;;43.45;21.90;;;;;;;2.79;86.62;100849.91;6217002;23;20402;-63
2021/12/23 11:54:42;;;;;;;42.72;22.17;;;;;;;2.92;87.03;100846.72;6217497;23;20011;-63
2021/12/23 11:57:27;;;;;;;42.23;21.77;;;;;;;2.97;87.31;100850.22;6217613;23;20004;-65
2021/12/23 12:00:42;;;;;;;46.65;21.92;;;;;;;2.97;86.30;100836.44;6217767;23;20091;-63
2021/12/23 12:03:02;;;;;;;44.78;21.95;;;;;;;3.03;86.53;100839.13;6209896;23;20283;-63
2021/12/23 12:05:28;;;;;;;45.75;23.38;;;;;;;3.03;86.70;100829.66;6217511;23;20132;-63
2021/12/23 12:08:11;;;;;;;44.53;22.65;;;;;;;3.08;86.96;100830.63;6217495;23;20012;-65
2021/12/23 12:10:38;;;;;;;42.90;21.80;;;;;;;3.07;85.73;100826.31;6217510;23;20020;-63
2021/12/23 12:13:09;;;;;;;44.58;23.00;;;;;;;3.12;86.17;100837.56;6217343;23;20000;-63
2021/12/23 12:15:41;;;;;;;46.78;22.55;;;;;;;3.17;86.56;100839.38;6217383;23;20460;-65
2021/12/23 12:18:19;;;;;;;42.10;21.85;;;;;;;3.15;86.86;100835.03;6217727;23;20001;-62
2021/12/23 12:20:49;;;;;;;45.95;22.13;;;;;;;3.18;86.64;100810.06;6217570;23;20005;-64